Date,TemperatureHighF,TemperatureAvgF,TemperatureLowF,DewpointHighF,DewpointAvgF,DewpointLowF,HumidityHigh,HumidityAvg,HumidityLow,PressureMaxIn,PressureMinIn,WindSpeedMaxMPH,WindSpeedAvgMPH,GustSpeedMaxMPH,PrecipitationSumIn
2013-2-1,41,30,21,9,-14,-21,34,14,11,27.67,27.29,20,4,20,0.00
2013-2-2,44,30,19,14,-10,-22,43,18,10,27.67,27.37,10,1,10,0.00
2013-2-3,50,37,29,16,-6,-16,48,17,9,27.40,27.26,26,4,26,0.00
2013-2-4,56,37,24,-5,-11,-18,24,12,7,27.49,27.34,13,2,13,0.00
2013-2-5,66,45,33,-4,-9,-13,13,10,5,27.40,27.32,13,1,13,0.00
2013-2-6,71,46,34,12,-4,-12,35,14,4,27.61,27.40,9,2,9,0.00
2013-2-7,47,43,40,28,4,-10,57,26,9,27.61,27.37,8,1,8,0.24
2013-2-8,57,43,33,36,18,-12,68,42,7,27.52,27.32,22,2,22,0.00
2013-2-9,72,42,28,5,-6,-13,31,14,4,27.67,27.49,15,3,15,0.00
2013-2-10,56,44,38,33,-2,-12,58,18,7,27.73,27.52,13,3,13,0.31
2013-2-11,58,51,43,47,21,-10,70,41,7,27.52,27.40,14,2,14,0.04
2013-2-12,54,44,38,22,-4,-12,48,15,8,27.52,27.32,11,2,11,0.12
2013-2-13,57,42,34,33,14,-12,58,38,7,27.34,27.05,20,3,20,0.24
2013-2-14,67,43,33,11,-4,-12,39,16,5,27.43,27.29,6,1,6,0.00
2013-2-15,61,42,30,14,-1,-13,39,19,6,27.49,27.34,15,2,15,0.00
2013-2-16,38,31,22,8,-10,-20,32,17,11,27.40,27.23,20,4,20,0.00
2013-2-17,43,28,20,-8,-17,-22,14,13,10,27.58,27.34,26,5,26,0.00
2013-2-18,60,38,22,-4,-12,-20,15,11,7,27.67,27.52,14,3,14,0.00
2013-2-19,62,43,34,25,-1,-13,50,20,6,27.52,27.29,22,4,22,0.04
2013-2-20,50,36,28,-7,-12,-16,13,12,9,27.52,27.40,17,4,17,0.00
2013-2-21,67,42,25,13,-9,-18,34,12,5,27.58,27.43,8,2,8,0.20
2013-2-22,44,39,35,25,19,11,57,44,30,27.61,27.46,12,3,12,0.16
2013-2-23,57,48,38,46,33,25,74,58,40,27.46,27.26,5,0,5,0.08
2013-2-24,69,46,36,28,6,-12,58,27,5,27.46,27.29,11,2,11,0.00
2013-2-25,56,40,32,9,-9,-13,34,12,7,27.52,27.40,11,3,11,0.00
2013-2-26,41,36,34,30,21,10,69,53,35,27.40,26.96,11,2,11,1.14
2013-2-27,68,46,33,25,1,-10,52,19,5,27.20,27.05,15,3,15,0.00
2013-2-28,47,37,32,10,-11,-13,31,12,9,27.29,27.14,14,3,14,0.00